createdAt,value
2017-07-23T00:00:20.903Z,21.09
2017-07-23T00:02:49.289Z,20.57
2017-07-23T00:05:17.674Z,20.56
2017-07-23T00:07:46.430Z,20.66
2017-07-23T00:10:14.807Z,20.98
2017-07-23T00:12:43.160Z,21.13
2017-07-23T00:15:11.819Z,21.25
2017-07-23T00:17:40.177Z,21.31
2017-07-23T00:20:08.590Z,21.42
2017-07-23T00:22:37.542Z,21.45
2017-07-23T00:25:05.908Z,21.51
2017-07-23T00:27:35.030Z,21.50
2017-07-23T00:30:03.826Z,21.60
2017-07-23T00:32:32.197Z,21.68
2017-07-23T00:35:00.555Z,21.67
2017-07-23T00:37:29.264Z,21.79
2017-07-23T00:39:57.656Z,21.87
2017-07-23T00:42:26.022Z,21.75
2017-07-23T00:44:55.124Z,21.76
2017-07-23T00:47:23.522Z,21.62
2017-07-23T00:49:51.901Z,21.68
2017-07-23T00:52:20.572Z,21.74
2017-07-23T00:54:48.924Z,21.74
2017-07-23T00:57:18.018Z,21.69
2017-07-23T00:59:47.409Z,21.61
2017-07-23T01:02:15.782Z,21.58
2017-07-23T01:04:44.136Z,21.64
2017-07-23T01:07:13.082Z,21.68
2017-07-23T01:09:41.461Z,21.87
2017-07-23T01:12:09.812Z,21.95
2017-07-23T01:14:38.527Z,21.88
2017-07-23T01:17:06.890Z,21.87
2017-07-23T01:19:36.002Z,21.77
2017-07-23T01:22:04.713Z,21.80
2017-07-23T01:24:33.050Z,21.91
2017-07-23T01:27:01.417Z,21.89
2017-07-23T01:29:30.364Z,22.00
2017-07-23T01:31:58.742Z,21.91
2017-07-23T01:34:27.090Z,21.67
2017-07-23T01:36:55.727Z,21.64
2017-07-23T01:39:24.075Z,21.70
2017-07-23T01:41:52.429Z,21.70
2017-07-23T01:44:21.310Z,21.65
2017-07-23T01:46:49.651Z,21.69
2017-07-23T01:49:17.999Z,21.64
2017-07-23T01:51:46.782Z,21.76
2017-07-23T01:54:15.126Z,21.62
2017-07-23T01:56:43.477Z,21.71
2017-07-23T01:59:12.230Z,21.62
2017-07-23T02:01:40.598Z,21.71
2017-07-23T02:04:09.715Z,21.68
2017-07-23T02:06:38.521Z,21.76
2017-07-23T02:09:06.900Z,21.81
2017-07-23T02:11:35.259Z,21.89
2017-07-23T02:14:04.342Z,21.88
2017-07-23T02:16:32.702Z,22.03
2017-07-23T02:19:01.828Z,22.07
2017-07-23T02:21:30.582Z,22.26
2017-07-23T02:23:58.956Z,22.26
2017-07-23T02:26:28.095Z,22.34
2017-07-23T02:28:56.879Z,22.33
2017-07-23T02:31:25.252Z,22.27
2017-07-23T02:33:53.668Z,22.30
2017-07-23T02:36:22.544Z,22.21
2017-07-23T02:38:50.901Z,22.16
2017-07-23T02:41:19.257Z,21.98
2017-07-23T02:43:48.593Z,21.92
2017-07-23T02:46:16.984Z,21.93
2017-07-23T02:48:45.359Z,21.75
2017-07-23T02:51:14.146Z,21.75
2017-07-23T02:53:42.488Z,21.80
2017-07-23T02:56:10.849Z,21.91
2017-07-23T02:58:39.690Z,22.08
2017-07-23T03:01:08.961Z,22.19
2017-07-23T03:03:37.315Z,22.24
2017-07-23T03:06:05.971Z,22.22
2017-07-23T03:08:34.304Z,21.92
2017-07-23T03:11:03.405Z,21.81
2017-07-23T03:13:33.049Z,21.64
2017-07-23T03:16:01.458Z,21.66
2017-07-23T03:18:29.808Z,21.84
2017-07-23T03:20:58.657Z,21.94
2017-07-23T03:23:27.003Z,21.67
2017-07-23T03:25:55.372Z,21.46
2017-07-23T03:28:24.120Z,21.48
2017-07-23T03:30:52.464Z,21.64
2017-07-23T03:33:20.810Z,21.83
2017-07-23T03:35:49.549Z,21.74
2017-07-23T03:38:17.886Z,21.84
2017-07-23T03:40:46.247Z,21.93
2017-07-23T03:43:15.407Z,21.98
2017-07-23T03:45:43.848Z,21.92
2017-07-23T03:48:12.210Z,21.67
2017-07-23T03:50:41.072Z,21.38
2017-07-23T03:53:09.439Z,21.33
2017-07-23T03:55:38.551Z,21.17
2017-07-23T03:58:07.335Z,21.25
2017-07-23T04:00:35.708Z,21.37
2017-07-23T04:03:04.091Z,21.47
2017-07-23T04:05:33.402Z,21.49
2017-07-23T04:08:01.740Z,21.33
2017-07-23T04:10:30.108Z,21.40
2017-07-23T04:12:58.846Z,21.29
2017-07-23T04:15:27.210Z,21.25
2017-07-23T04:17:56.355Z,21.30
2017-07-23T04:20:24.969Z,21.01
2017-07-23T04:22:53.347Z,20.99
2017-07-23T04:25:21.690Z,20.84
2017-07-23T04:27:50.510Z,20.76
2017-07-23T04:30:18.873Z,20.91
2017-07-23T04:32:47.232Z,20.95
2017-07-23T04:35:16.215Z,21.00
2017-07-23T04:37:44.576Z,20.79
2017-07-23T04:40:12.934Z,20.87
2017-07-23T04:42:41.859Z,21.11
2017-07-23T04:45:10.241Z,21.21
2017-07-23T04:47:38.588Z,21.31
2017-07-23T04:50:07.545Z,21.30
2017-07-23T04:52:35.881Z,21.37
2017-07-23T04:55:04.990Z,21.34
2017-07-23T04:57:33.768Z,21.32
2017-07-23T05:00:02.171Z,21.11
2017-07-23T05:02:30.539Z,21.30
2017-07-23T05:04:59.311Z,21.44
2017-07-23T05:07:27.651Z,21.04
2017-07-23T05:09:56.015Z,21.23
2017-07-23T05:12:24.893Z,20.99
2017-07-23T05:14:53.298Z,21.21
2017-07-23T05:17:21.671Z,21.41
2017-07-23T05:19:50.538Z,21.38
2017-07-23T05:22:18.920Z,21.40
2017-07-23T05:24:47.308Z,21.22
2017-07-23T05:27:16.188Z,21.15
2017-07-23T05:29:44.547Z,21.13
2017-07-23T05:32:13.053Z,21.01
2017-07-23T05:34:41.820Z,21.21
2017-07-23T05:37:10.196Z,21.26
2017-07-23T05:39:38.620Z,21.19
2017-07-23T05:42:07.293Z,21.31
2017-07-23T05:44:35.642Z,21.33
2017-07-23T05:47:04.036Z,21.35
2017-07-23T05:49:32.718Z,21.20
2017-07-23T05:52:01.082Z,21.30
2017-07-23T05:54:29.489Z,21.46
2017-07-23T05:56:58.195Z,21.59
2017-07-23T05:59:26.575Z,21.52
2017-07-23T06:01:54.929Z,21.62
2017-07-23T06:04:23.608Z,21.70
2017-07-23T06:06:51.986Z,21.89
2017-07-23T06:09:20.362Z,21.96
2017-07-23T06:11:49.041Z,21.77
2017-07-23T06:14:17.477Z,21.79
2017-07-23T06:16:45.870Z,21.53
2017-07-23T06:19:14.934Z,21.63
2017-07-23T06:21:43.314Z,21.67
2017-07-23T06:24:11.711Z,21.65
2017-07-23T06:26:40.580Z,21.56
2017-07-23T06:29:08.947Z,21.49
2017-07-23T06:31:37.400Z,21.47
2017-07-23T06:34:06.991Z,21.69
2017-07-23T06:36:35.375Z,21.83
2017-07-23T06:39:04.541Z,21.89
2017-07-23T06:41:33.477Z,21.92
2017-07-23T06:44:01.839Z,22.15
2017-07-23T06:46:30.988Z,21.83
2017-07-23T06:48:59.779Z,21.71
2017-07-23T06:51:28.154Z,21.91
2017-07-23T06:53:56.501Z,22.08
2017-07-23T06:56:25.196Z,21.91
2017-07-23T06:58:53.544Z,22.08
2017-07-23T07:01:21.921Z,22.10
2017-07-23T07:03:51.049Z,22.15
2017-07-23T07:06:19.411Z,22.03
2017-07-23T07:08:48.532Z,22.13
2017-07-23T07:11:17.322Z,22.12
2017-07-23T07:13:45.711Z,22.20
2017-07-23T07:16:14.071Z,22.59
2017-07-23T07:18:42.737Z,22.40
2017-07-23T07:21:11.148Z,22.80
2017-07-23T07:23:39.490Z,22.96
2017-07-23T07:26:08.438Z,22.35
2017-07-23T07:28:36.810Z,22.25
2017-07-23T07:31:05.158Z,22.71
2017-07-23T07:33:34.064Z,23.21
2017-07-23T07:36:02.408Z,23.89
2017-07-23T07:38:30.763Z,24.08
2017-07-23T07:40:59.500Z,23.61
2017-07-23T07:43:27.871Z,23.22
2017-07-23T07:45:57.017Z,23.93
2017-07-23T07:48:25.987Z,23.68
2017-07-23T07:50:54.350Z,23.72
2017-07-23T07:53:22.698Z,23.97
2017-07-23T07:55:51.441Z,24.05
2017-07-23T07:58:19.825Z,24.25
2017-07-23T08:00:48.246Z,24.36
2017-07-23T08:03:16.913Z,24.39
2017-07-23T08:05:45.327Z,24.54
2017-07-23T08:08:13.686Z,23.71
2017-07-23T08:10:42.744Z,23.29
2017-07-23T08:13:11.110Z,23.53
2017-07-23T08:15:39.459Z,23.40
2017-07-23T08:18:08.124Z,23.00
2017-07-23T08:20:36.478Z,23.26
2017-07-23T08:23:04.827Z,22.32
2017-07-23T08:25:33.461Z,22.55
2017-07-23T08:28:01.875Z,22.70
2017-07-23T08:30:30.242Z,22.47
2017-07-23T08:32:59.085Z,22.43
2017-07-23T08:35:27.429Z,22.63
2017-07-23T08:37:55.767Z,22.60
2017-07-23T08:40:24.706Z,22.36
2017-07-23T08:42:53.067Z,22.18
2017-07-23T08:45:22.194Z,22.48
2017-07-23T08:47:50.882Z,22.38
2017-07-23T08:50:19.340Z,22.21
2017-07-23T08:52:47.780Z,22.53
2017-07-23T08:55:16.649Z,22.79
2017-07-23T08:57:45.022Z,23.42
2017-07-23T09:00:13.434Z,23.93
2017-07-23T09:02:42.274Z,24.30
2017-07-23T09:05:10.622Z,24.31
2017-07-23T09:07:39.742Z,24.88
2017-07-23T09:10:09.143Z,24.47
2017-07-23T09:12:37.473Z,24.24
2017-07-23T09:15:05.809Z,24.60
2017-07-23T09:17:34.682Z,24.11
2017-07-23T09:20:03.049Z,24.20
2017-07-23T09:22:31.414Z,24.45
2017-07-23T09:25:00.042Z,25.58
2017-07-23T09:27:28.395Z,25.66
2017-07-23T09:29:57.505Z,26.22
2017-07-23T09:32:27.343Z,26.48
2017-07-23T09:34:55.771Z,27.15
2017-07-23T09:37:24.147Z,27.40
2017-07-23T09:39:52.995Z,26.41
2017-07-23T09:42:21.351Z,25.81
2017-07-23T09:44:49.728Z,25.34
2017-07-23T09:47:18.620Z,25.23
2017-07-23T09:49:46.997Z,25.00
2017-07-23T09:52:15.369Z,24.80
2017-07-23T09:54:44.004Z,24.31
2017-07-23T09:57:12.366Z,24.69
2017-07-23T09:59:40.715Z,25.29
2017-07-23T10:02:10.234Z,25.06
2017-07-23T10:04:38.631Z,25.73
2017-07-23T10:07:06.990Z,25.62
2017-07-23T10:09:35.617Z,25.58
2017-07-23T10:12:03.964Z,25.05
2017-07-23T10:14:32.342Z,24.98
2017-07-23T10:17:01.243Z,24.57
2017-07-23T10:19:29.633Z,24.38
2017-07-23T10:21:58.000Z,24.64
2017-07-23T10:24:27.087Z,24.85
2017-07-23T10:26:55.437Z,25.23
2017-07-23T10:29:24.614Z,24.87
2017-07-23T10:31:53.463Z,25.16
2017-07-23T10:34:21.895Z,24.73
2017-07-23T10:36:50.268Z,25.13
2017-07-23T10:39:19.213Z,24.87
2017-07-23T10:41:47.581Z,24.75
2017-07-23T10:44:15.931Z,23.89
2017-07-23T10:46:45.066Z,23.62
2017-07-23T10:49:13.401Z,24.23
2017-07-23T10:51:42.563Z,23.82
2017-07-23T10:54:11.351Z,23.77
2017-07-23T10:56:39.738Z,23.81
2017-07-23T10:59:08.103Z,23.82
2017-07-23T11:04:04.457Z,24.30
2017-07-23T11:06:32.855Z,24.57
2017-07-23T11:09:01.824Z,24.78
2017-07-23T11:11:30.184Z,25.07
2017-07-23T11:13:58.552Z,25.25
2017-07-23T11:16:27.563Z,25.57
2017-07-23T11:18:55.902Z,26.05
2017-07-23T11:21:24.279Z,25.92
2017-07-23T11:23:52.903Z,26.11
2017-07-23T11:26:21.253Z,26.24
2017-07-23T11:28:49.590Z,26.24
2017-07-23T11:31:18.483Z,25.80
2017-07-23T11:33:46.837Z,25.84
2017-07-23T11:36:15.191Z,25.61
2017-07-23T11:38:44.632Z,25.86
2017-07-23T11:41:13.007Z,25.79
2017-07-23T11:43:41.402Z,25.99
2017-07-23T11:46:10.066Z,26.07
2017-07-23T11:48:38.438Z,25.95
2017-07-23T11:51:06.796Z,25.78
2017-07-23T11:53:35.753Z,26.00
2017-07-23T11:56:04.144Z,26.04
2017-07-23T11:58:32.527Z,26.16
2017-07-23T12:01:01.358Z,26.11
2017-07-23T12:03:29.762Z,26.03
2017-07-23T12:05:58.146Z,25.96
2017-07-23T12:08:27.004Z,26.23
2017-07-23T12:10:55.368Z,26.12
2017-07-23T12:13:24.508Z,25.91
2017-07-23T12:15:53.363Z,25.62
2017-07-23T12:18:22.552Z,25.73
2017-07-23T12:20:50.924Z,26.02
2017-07-23T12:23:19.738Z,26.51
2017-07-23T12:25:48.135Z,26.82
2017-07-23T12:28:16.480Z,27.47
2017-07-23T12:30:45.407Z,27.46
2017-07-23T12:33:13.793Z,26.85
2017-07-23T12:35:42.134Z,26.80
2017-07-23T12:38:10.938Z,27.17
2017-07-23T12:40:39.312Z,27.30
2017-07-23T12:43:07.665Z,27.26
2017-07-23T12:45:36.502Z,26.94
2017-07-23T12:48:04.881Z,26.92
2017-07-23T12:50:33.248Z,26.82
2017-07-23T12:53:01.884Z,27.48
2017-07-23T12:55:30.238Z,27.79
2017-07-23T12:57:58.635Z,27.63
2017-07-23T13:00:27.600Z,27.86
2017-07-23T13:02:55.989Z,27.54
2017-07-23T13:05:24.339Z,27.48
2017-07-23T13:07:53.251Z,27.88
2017-07-23T13:10:21.583Z,27.13
2017-07-23T13:12:50.734Z,27.72
2017-07-23T13:15:19.506Z,27.76
2017-07-23T13:17:47.902Z,28.24
2017-07-23T13:20:16.263Z,27.33
2017-07-23T13:22:45.577Z,27.22
2017-07-23T13:25:13.932Z,27.16
2017-07-23T13:27:42.326Z,27.76
2017-07-23T13:30:10.982Z,27.91
2017-07-23T13:32:39.779Z,28.06
2017-07-23T13:35:08.903Z,27.56
2017-07-23T13:37:37.700Z,27.28
2017-07-23T13:40:06.038Z,27.50
2017-07-23T13:42:35.153Z,26.41
2017-07-23T13:45:04.212Z,26.91
2017-07-23T13:47:32.590Z,26.40
2017-07-23T13:50:00.976Z,27.22
2017-07-23T13:52:29.629Z,26.84
2017-07-23T13:54:57.992Z,26.55
2017-07-23T13:57:26.345Z,26.88
2017-07-23T13:59:55.230Z,26.63
2017-07-23T14:02:23.616Z,26.86
2017-07-23T14:04:52.008Z,27.02
2017-07-23T14:07:20.953Z,27.25
2017-07-23T14:09:49.358Z,27.28
2017-07-23T14:12:17.772Z,26.87
2017-07-23T14:14:46.488Z,26.45
2017-07-23T14:17:14.880Z,26.21
2017-07-23T14:19:43.240Z,26.08
2017-07-23T14:22:11.999Z,26.15
2017-07-23T14:24:40.378Z,26.37
2017-07-23T14:27:08.732Z,26.74
2017-07-23T14:29:37.855Z,26.95
2017-07-23T14:32:06.207Z,26.81
2017-07-23T14:34:35.358Z,26.52
2017-07-23T14:37:04.122Z,26.12
2017-07-23T14:39:32.468Z,26.42
2017-07-23T14:42:01.628Z,26.80
2017-07-23T14:44:30.249Z,26.83
2017-07-23T14:46:59.363Z,26.52
2017-07-23T14:49:27.678Z,26.61
2017-07-23T14:51:56.462Z,27.05
2017-07-23T14:54:24.833Z,27.15
2017-07-23T14:56:53.215Z,27.06
2017-07-23T14:59:21.875Z,27.13
2017-07-23T15:01:50.290Z,27.57
2017-07-23T15:04:18.635Z,27.15
2017-07-23T15:06:47.507Z,27.00
2017-07-23T15:09:15.876Z,26.96
2017-07-23T15:11:45.050Z,27.14
2017-07-23T15:14:14.000Z,27.45
2017-07-23T15:16:42.353Z,27.70
2017-07-23T15:19:11.505Z,27.86
2017-07-23T15:21:40.294Z,27.75
2017-07-23T15:24:08.672Z,27.44
2017-07-23T15:26:37.017Z,27.12
2017-07-23T15:29:05.693Z,27.22
2017-07-23T15:31:34.049Z,27.30
2017-07-23T15:34:02.407Z,27.56
2017-07-23T15:36:31.100Z,27.75
2017-07-23T15:38:59.461Z,27.25
2017-07-23T15:41:27.942Z,27.72
2017-07-23T15:43:56.599Z,27.39
2017-07-23T15:46:24.946Z,27.17
2017-07-23T15:48:53.351Z,27.56
2017-07-23T15:51:22.058Z,27.92
2017-07-23T15:53:50.448Z,28.18
2017-07-23T15:56:18.788Z,28.07
2017-07-23T15:58:47.819Z,27.30
2017-07-23T16:01:16.198Z,26.84
2017-07-23T16:03:44.609Z,27.01
2017-07-23T16:06:13.275Z,27.19
2017-07-23T16:08:41.691Z,26.60
2017-07-23T16:11:10.062Z,26.84
2017-07-23T16:13:38.820Z,26.95
2017-07-23T16:16:07.183Z,26.81
2017-07-23T16:18:35.553Z,26.74
2017-07-23T16:21:04.440Z,26.53
2017-07-23T16:23:32.784Z,26.14
2017-07-23T16:26:01.906Z,26.34
2017-07-23T16:28:30.550Z,26.67
2017-07-23T16:30:58.917Z,26.74
2017-07-23T16:33:27.276Z,26.66
2017-07-23T16:35:55.964Z,26.49
2017-07-23T16:38:24.349Z,26.86
2017-07-23T16:40:52.742Z,26.73
2017-07-23T16:43:21.923Z,26.69
2017-07-23T16:45:50.294Z,26.67
2017-07-23T16:48:18.631Z,26.52
2017-07-23T16:50:47.450Z,26.49
2017-07-23T16:53:15.846Z,26.24
2017-07-23T16:55:44.222Z,26.00
2017-07-23T16:58:12.886Z,26.42
2017-07-23T17:00:41.245Z,26.36
2017-07-23T17:03:10.385Z,26.27
2017-07-23T17:05:39.596Z,26.24
2017-07-23T17:08:07.960Z,26.39
2017-07-23T17:10:36.375Z,26.50
2017-07-23T17:13:05.026Z,26.32
2017-07-23T17:15:33.423Z,26.33
2017-07-23T17:18:01.822Z,26.38
2017-07-23T17:20:30.694Z,26.17
2017-07-23T17:22:59.095Z,25.98
2017-07-23T17:25:27.471Z,26.04
2017-07-23T17:27:56.735Z,25.72
2017-07-23T17:30:25.126Z,25.48
2017-07-23T17:32:53.516Z,25.57
2017-07-23T17:35:22.186Z,25.56
2017-07-23T17:37:50.574Z,25.30
2017-07-23T17:40:18.935Z,25.30
2017-07-23T17:42:47.741Z,25.18
2017-07-23T17:45:16.127Z,25.08
2017-07-23T17:47:44.504Z,25.28
2017-07-23T17:50:13.696Z,25.17
2017-07-23T17:52:42.118Z,24.74
2017-07-23T17:55:10.512Z,24.82
2017-07-23T17:57:39.280Z,24.75
2017-07-23T18:00:07.687Z,24.71
2017-07-23T18:02:36.037Z,24.83
2017-07-23T18:05:04.953Z,24.83
2017-07-23T18:07:33.313Z,24.77
2017-07-23T18:10:01.684Z,24.80
2017-07-23T18:12:30.653Z,24.48
2017-07-23T18:14:59.053Z,24.46
2017-07-23T18:17:27.504Z,24.39
2017-07-23T18:19:56.147Z,24.37
2017-07-23T18:22:24.556Z,24.08
2017-07-23T18:24:52.927Z,24.17
2017-07-23T18:27:21.749Z,24.37
2017-07-23T18:29:50.130Z,24.28
2017-07-23T18:32:18.482Z,24.31
2017-07-23T18:34:47.334Z,24.23
2017-07-23T18:37:15.736Z,24.21
2017-07-23T18:39:44.928Z,23.93
2017-07-23T18:42:13.888Z,23.84
2017-07-23T18:44:42.226Z,24.08
2017-07-23T18:47:10.610Z,23.58
2017-07-23T18:49:39.435Z,23.41
2017-07-23T18:52:07.848Z,23.49
2017-07-23T18:54:37.155Z,23.33
2017-07-23T18:57:06.366Z,23.09
2017-07-23T18:59:34.763Z,23.10
2017-07-23T19:02:03.169Z,23.32
2017-07-23T19:04:31.865Z,23.56
2017-07-23T19:07:00.260Z,23.48
2017-07-23T19:09:28.627Z,23.16
2017-07-23T19:11:57.261Z,23.01
2017-07-23T19:14:25.652Z,22.98
2017-07-23T19:16:54.081Z,22.97
2017-07-23T19:19:23.134Z,22.76
2017-07-23T19:21:51.510Z,22.67
2017-07-23T19:24:19.851Z,22.80
2017-07-23T19:26:48.785Z,22.99
2017-07-23T19:29:17.207Z,22.95
2017-07-23T19:31:45.607Z,22.85
2017-07-23T19:34:14.528Z,22.84
2017-07-23T19:36:42.924Z,22.74
2017-07-23T19:39:11.313Z,22.58
2017-07-23T19:41:40.487Z,22.60
2017-07-23T19:44:08.894Z,22.69
2017-07-23T19:46:37.315Z,22.38
2017-07-23T19:49:06.356Z,22.51
2017-07-23T19:51:34.796Z,22.68
2017-07-23T19:54:03.214Z,22.77
2017-07-23T19:56:31.868Z,22.81
2017-07-23T19:59:00.262Z,22.68
2017-07-23T20:01:28.859Z,22.78
2017-07-23T20:03:57.852Z,22.67
2017-07-23T20:06:26.283Z,22.64
2017-07-23T20:08:54.686Z,22.56
2017-07-23T20:11:23.587Z,22.55
2017-07-23T20:13:52.009Z,22.28
2017-07-23T20:16:20.421Z,22.23
2017-07-23T20:18:49.086Z,22.25
2017-07-23T20:21:17.484Z,22.28
2017-07-23T20:23:46.627Z,22.19
2017-07-23T20:26:15.620Z,22.09
2017-07-23T20:28:43.970Z,22.15
2017-07-23T20:31:12.364Z,22.18
2017-07-23T20:33:41.048Z,22.22
2017-07-23T20:36:09.470Z,22.08
2017-07-23T20:38:37.904Z,22.16
2017-07-23T20:41:06.637Z,22.09
2017-07-23T20:43:35.031Z,21.95
2017-07-23T20:46:03.462Z,21.77
2017-07-23T20:48:32.498Z,21.73
2017-07-23T20:51:00.938Z,21.54
2017-07-23T20:53:29.377Z,21.45
2017-07-23T20:55:58.045Z,21.27
2017-07-23T20:58:26.474Z,21.32
2017-07-23T21:00:54.927Z,21.25
2017-07-23T21:03:23.604Z,21.32
2017-07-23T21:05:52.041Z,21.33
2017-07-23T21:08:20.437Z,21.28
2017-07-23T21:10:49.274Z,21.20
2017-07-23T21:13:17.686Z,21.19
2017-07-23T21:15:46.065Z,21.07
2017-07-23T21:18:14.741Z,20.99
2017-07-23T21:20:43.139Z,20.78
2017-07-23T21:23:11.503Z,20.86
2017-07-23T21:25:40.469Z,20.93
2017-07-23T21:28:08.909Z,20.73
2017-07-23T21:30:37.317Z,20.71
2017-07-23T21:33:06.263Z,20.71
2017-07-23T21:35:34.654Z,20.66
2017-07-23T21:38:03.100Z,20.61
2017-07-23T21:40:31.782Z,20.61
2017-07-23T21:43:00.179Z,20.50
2017-07-23T21:45:28.590Z,20.56
2017-07-23T21:47:57.307Z,20.51
2017-07-23T21:50:25.767Z,20.48
2017-07-23T21:52:54.154Z,20.42
2017-07-23T21:55:22.991Z,20.35
2017-07-23T21:57:51.378Z,20.34
2017-07-23T22:00:19.748Z,20.40
2017-07-23T22:02:48.396Z,20.21
2017-07-23T22:05:16.796Z,20.02
2017-07-23T22:07:45.196Z,19.92
2017-07-23T22:10:13.974Z,19.74
2017-07-23T22:12:42.390Z,19.70
2017-07-23T22:15:10.784Z,19.69
2017-07-23T22:17:39.841Z,19.78
2017-07-23T22:20:08.187Z,19.80
2017-07-23T22:22:36.610Z,19.65
2017-07-23T22:25:05.347Z,19.78
2017-07-23T22:27:33.733Z,19.76
2017-07-23T22:30:02.130Z,19.60
2017-07-23T22:32:30.994Z,19.66
2017-07-23T22:34:59.571Z,19.59
2017-07-23T22:37:27.977Z,19.57
2017-07-23T22:39:57.177Z,19.36
2017-07-23T22:42:26.453Z,19.40
2017-07-23T22:44:54.872Z,19.40
2017-07-23T22:47:23.523Z,19.51
2017-07-23T22:49:51.976Z,19.56
2017-07-23T22:52:20.404Z,19.46
2017-07-23T22:54:49.796Z,19.41
2017-07-23T22:57:18.162Z,19.52
2017-07-23T22:59:46.528Z,19.38
2017-07-23T23:02:15.647Z,19.32
2017-07-23T23:04:44.091Z,19.29
2017-07-23T23:07:12.474Z,19.36
2017-07-23T23:09:41.530Z,19.42
2017-07-23T23:12:09.916Z,19.48
2017-07-23T23:14:38.333Z,19.51
2017-07-23T23:17:07.077Z,19.54
2017-07-23T23:19:35.441Z,19.66
2017-07-23T23:22:03.816Z,19.70
2017-07-23T23:24:32.788Z,19.85
2017-07-23T23:27:01.201Z,19.69
2017-07-23T23:29:30.332Z,19.44
2017-07-23T23:31:59.334Z,19.41
2017-07-23T23:34:27.706Z,19.21
2017-07-23T23:36:56.769Z,19.09
2017-07-23T23:39:25.688Z,18.92
2017-07-23T23:41:54.061Z,18.95
2017-07-23T23:44:22.553Z,19.00
2017-07-23T23:46:51.451Z,19.01
2017-07-23T23:49:19.895Z,18.93
2017-07-23T23:51:48.326Z,18.65
2017-07-23T23:54:17.034Z,18.44
2017-07-23T23:56:45.436Z,18.63
2017-07-23T23:59:13.867Z,18.73
